Time;durP1;ratioP1;P1;durP2;ratioP2;P2;SDS_P1;SDS_P2;PMS_P1;PMS_P2;Temp;Humidity;BMP_temperature;BMP_pressure;BME280_temperature;BME280_humidity;BME280_pressure;Samples;Min_cycle;Max_cycle;Signal;HPM_P1;HPM_P2
2023/01/06 00:01:13;;;;;;;8.00;3.20;;;;;;;14.15;63.49;101759.84;4963470;28;114483;-68
2023/01/06 00:03:41;;;;;;;5.60;3.00;;;;;;;14.16;63.30;101756.25;4962875;28;114179;-68
2023/01/06 00:06:10;;;;;;;9.13;3.17;;;;;;;14.17;63.54;101752.66;4964607;28;124951;-68
2023/01/06 00:08:39;;;;;;;7.32;2.80;;;;;;;14.19;63.44;101756.09;4947359;28;123500;-68
2023/01/06 00:11:15;;;;;;;9.55;3.40;;;;;;;14.20;63.34;101752.53;4957405;28;114084;-68
2023/01/06 00:13:42;;;;;;;8.00;3.25;;;;;;;14.20;63.25;101747.19;4964254;28;115698;-68
2023/01/06 00:16:12;;;;;;;8.80;3.58;;;;;;;14.21;63.16;101743.56;4959818;28;123836;-68
2023/01/06 00:18:40;;;;;;;6.93;3.17;;;;;;;14.21;63.22;101740.91;4953149;28;126600;-68
2023/01/06 00:21:08;;;;;;;6.70;3.30;;;;;;;14.23;63.39;101740.00;4967056;28;115114;-68
2023/01/06 00:23:36;;;;;;;7.50;3.28;;;;;;;14.23;63.29;101730.19;4961431;28;114798;-68
2023/01/06 00:26:04;;;;;;;6.40;3.65;;;;;;;14.26;63.33;101739.84;4965206;28;124343;-68
2023/01/06 00:28:32;;;;;;;9.02;3.30;;;;;;;14.27;63.40;101725.59;4959327;28;124548;-68
2023/01/06 00:31:09;;;;;;;6.88;3.28;;;;;;;14.27;63.26;101728.25;4962760;28;114656;-68
2023/01/06 00:33:40;;;;;;;10.23;4.15;;;;;;;14.29;63.30;101729.03;4956631;28;114374;-68
2023/01/06 00:36:09;;;;;;;8.70;3.80;;;;;;;14.30;63.33;101730.78;4973695;28;123762;-69
2023/01/06 00:38:38;;;;;;;6.55;3.55;;;;;;;14.31;63.25;101732.50;4957321;28;123783;-68
2023/01/06 00:44:01;;;;;;;8.65;3.80;;;;;;;14.35;63.21;101744.75;4966400;28;114720;-68
2023/01/06 00:46:29;;;;;;;6.10;3.25;;;;;;;14.34;63.17;101738.56;4963733;28;125501;-68
2023/01/06 00:48:58;;;;;;;9.02;3.40;;;;;;;14.34;63.07;101732.38;4950150;28;124935;-68
2023/01/06 00:51:35;;;;;;;8.77;3.60;;;;;;;14.36;63.40;101735.81;4959291;28;114712;-68
2023/01/06 00:54:02;;;;;;;8.25;3.60;;;;;;;14.37;62.98;101733.09;4968974;28;114471;-68
2023/01/06 00:56:31;;;;;;;8.00;3.20;;;;;;;14.38;63.04;101731.28;4958399;28;124822;-68
2023/01/06 00:58:58;;;;;;;4.78;2.85;;;;;;;14.37;63.01;101721.53;4969037;28;123495;-68
2023/01/06 01:01:25;;;;;;;7.15;3.10;;;;;;;14.37;63.01;101730.44;4946799;28;115440;-68
2023/01/06 01:03:52;;;;;;;6.78;2.70;;;;;;;14.38;62.91;101723.28;4964163;28;115387;-68
2023/01/06 01:06:19;;;;;;;5.60;2.65;;;;;;;14.39;62.86;101719.66;4976792;28;123930;-68
2023/01/06 01:08:46;;;;;;;6.80;2.22;;;;;;;14.38;62.92;101723.28;4963284;28;124196;-69
2023/01/06 01:12:08;;;;;;;5.43;2.50;;;;;;;14.38;62.85;101731.28;4966456;28;114372;-68
2023/01/06 01:14:01;;;;;;;5.40;2.35;;;;;;;14.38;62.80;101731.28;4962316;28;115052;-69
2023/01/06 01:16:28;;;;;;;4.65;2.30;;;;;;;14.38;62.63;101729.47;4960755;28;124355;-68
2023/01/06 01:18:56;;;;;;;5.45;2.22;;;;;;;14.38;62.62;101723.28;4950500;28;123010;-68
2023/01/06 01:21:24;;;;;;;6.63;2.53;;;;;;;14.38;62.72;101717.97;4963687;28;112763;-68
2023/01/06 01:23:51;;;;;;;3.97;1.80;;;;;;;14.40;62.71;101726.75;4960538;28;114395;-69
2023/01/06 01:26:18;;;;;;;4.10;2.10;;;;;;;14.41;62.54;101717.81;4959301;28;124226;-68
2023/01/06 01:28:45;;;;;;;5.78;2.15;;;;;;;14.40;62.51;101721.41;4946120;28;125272;-68
2023/01/06 01:31:14;;;;;;;6.13;2.33;;;;;;;14.40;62.57;101716.09;4963712;28;114579;-68
2023/01/06 01:33:42;;;;;;;3.85;1.90;;;;;;;14.41;62.45;101718.69;4939320;28;116013;-68
2023/01/06 01:36:12;;;;;;;4.97;2.13;;;;;;;14.43;62.36;101721.28;4964798;28;124965;-68
2023/01/06 01:38:40;;;;;;;3.95;1.98;;;;;;;14.44;62.19;101711.47;4963537;28;124685;-68
2023/01/06 01:41:13;;;;;;;6.40;2.30;;;;;;;14.44;62.45;101717.66;4965079;28;115235;-68
2023/01/06 01:43:57;;;;;;;5.80;2.08;;;;;;;14.45;62.28;101713.19;4964180;28;115336;-67
2023/01/06 01:46:35;;;;;;;3.35;1.90;;;;;;;14.45;61.99;101708.75;4964578;28;124647;-68
2023/01/06 01:49:15;;;;;;;5.60;2.10;;;;;;;14.45;62.21;101707.84;4963733;28;123820;-68
2023/01/06 01:51:45;;;;;;;3.95;1.85;;;;;;;14.44;62.04;101707.00;4955808;28;115627;-67
2023/01/06 01:54:18;;;;;;;6.38;1.70;;;;;;;14.44;61.99;101707.00;4946332;28;115144;-68
2023/01/06 01:56:51;;;;;;;4.68;1.80;;;;;;;14.43;62.10;101694.63;4959123;28;125068;-68
2023/01/06 01:59:22;;;;;;;5.03;1.73;;;;;;;14.44;62.13;101685.69;4963304;28;125389;-68
2023/01/06 02:01:50;;;;;;;5.18;1.60;;;;;;;14.44;61.76;101688.34;4961527;28;114817;-68
2023/01/06 02:04:21;;;;;;;5.65;1.65;;;;;;;14.44;61.93;101683.00;4944988;28;114922;-68
2023/01/06 02:06:49;;;;;;;5.03;1.83;;;;;;;14.45;61.86;101676.75;4960227;28;124360;-68
2023/01/06 02:09:31;;;;;;;6.28;1.60;;;;;;;14.46;61.91;101678.47;4967286;28;124588;-68
2023/01/06 02:11:59;;;;;;;5.63;1.40;;;;;;;14.46;61.81;101683.78;4946825;28;114521;-68
2023/01/06 02:14:27;;;;;;;3.13;1.70;;;;;;;14.47;61.76;101680.22;4953491;28;114247;-68
2023/01/06 02:17:40;;;;;;;5.65;1.48;;;;;;;14.47;61.70;101674.88;4963933;28;125099;-68
2023/01/06 02:20:16;;;;;;;3.90;1.67;;;;;;;14.45;61.56;101666.09;4959693;28;124156;-68
2023/01/06 02:23:20;;;;;;;4.22;1.65;;;;;;;14.45;61.53;101666.09;4957040;28;114071;-68
2023/01/06 02:26:47;;;;;;;5.18;1.80;;;;;;;14.44;61.53;101669.69;4959583;28;114486;-66
2023/01/06 02:29:25;;;;;;;4.00;1.42;;;;;;;14.41;61.51;101664.53;4980345;28;124627;-67
2023/01/06 02:32:13;;;;;;;3.08;1.50;;;;;;;14.41;61.67;101659.19;4956264;28;123506;-69
2023/01/06 02:35:33;;;;;;;2.97;1.50;;;;;;;14.40;61.57;101657.44;4960464;28;115396;-69
2023/01/06 02:38:19;;;;;;;6.78;1.70;;;;;;;14.40;61.47;101652.13;4947538;28;114512;-70
2023/01/06 02:41:03;;;;;;;2.60;1.42;;;;;;;14.38;61.40;101643.34;4960202;28;126014;-67
2023/01/06 02:43:57;;;;;;;4.93;1.30;;;;;;;14.37;61.30;101642.47;4947688;28;123510;-67
2023/01/06 02:46:44;;;;;;;4.30;1.52;;;;;;;14.36;61.36;101635.41;4956000;28;115790;-67
2023/01/06 02:49:27;;;;;;;7.78;1.50;;;;;;;14.35;61.32;101616.81;4966728;28;114049;-67
2023/01/06 02:52:07;;;;;;;5.05;1.40;;;;;;;14.34;61.18;101620.44;4960657;28;123516;-67
2023/01/06 02:54:53;;;;;;;3.05;1.40;;;;;;;14.33;61.34;101624.03;4954768;28;123580;-67
2023/01/06 02:57:51;;;;;;;5.90;1.45;;;;;;;14.34;61.25;101617.78;4928097;28;115565;-67
2023/01/06 03:00:24;;;;;;;5.45;1.30;;;;;;;14.34;61.16;101605.31;4956679;28;115829;-67
2023/01/06 03:02:59;;;;;;;2.78;0.95;;;;;;;14.35;60.96;101606.16;4955298;28;124533;-67
2023/01/06 03:05:28;;;;;;;3.83;1.30;;;;;;;14.35;61.18;101596.38;4959849;28;125169;-67
2023/01/06 03:07:58;;;;;;;5.10;1.30;;;;;;;14.35;60.95;101596.38;4955223;28;114126;-67
2023/01/06 03:10:28;;;;;;;4.20;1.65;;;;;;;14.36;60.81;101598.09;4971359;28;115283;-67
2023/01/06 03:13:03;;;;;;;3.95;1.27;;;;;;;14.35;61.03;101595.50;4958123;28;126333;-67
2023/01/06 03:15:32;;;;;;;3.47;1.27;;;;;;;14.36;60.90;101599.91;4961574;28;124473;-67
2023/01/06 03:17:59;;;;;;;5.72;1.33;;;;;;;14.36;60.94;101591.91;4948500;28;114433;-67
2023/01/06 03:20:27;;;;;;;3.70;1.10;;;;;;;14.35;60.83;101596.38;4953939;28;114520;-67
2023/01/06 03:22:54;;;;;;;3.47;1.15;;;;;;;14.35;60.59;101606.16;4958899;28;123024;-67
2023/01/06 03:25:21;;;;;;;3.67;1.20;;;;;;;14.37;60.51;101609.63;4954596;28;124671;-67
2023/01/06 03:27:50;;;;;;;3.08;1.20;;;;;;;14.38;60.62;101606.88;4939202;28;115303;-67
2023/01/06 03:30:25;;;;;;;4.95;1.40;;;;;;;14.39;60.55;101602.41;4963430;28;113963;-67
2023/01/06 03:33:03;;;;;;;4.10;1.33;;;;;;;14.38;60.51;101600.69;4963106;28;125313;-67
2023/01/06 03:35:55;;;;;;;3.25;1.10;;;;;;;14.38;60.42;101584.69;4958708;28;124545;-67
2023/01/06 03:38:47;;;;;;;4.43;1.30;;;;;;;14.37;60.26;101593.63;4948038;28;114963;-67
2023/01/06 03:45:01;;;;;;;3.10;1.15;;;;;;;14.35;60.27;101590.16;4961999;28;124956;-67
2023/01/06 03:47:40;;;;;;;5.57;1.20;;;;;;;14.35;60.35;101587.50;4946130;28;125498;-67
2023/01/06 03:50:22;;;;;;;6.40;1.23;;;;;;;14.34;60.28;101588.47;4948641;28;114953;-66
2023/01/06 03:53:02;;;;;;;4.82;1.40;;;;;;;14.32;60.14;101577.03;4953577;28;115166;-67
2023/01/06 03:55:32;;;;;;;3.08;1.30;;;;;;;14.33;60.12;101578.72;4948613;28;124246;-67
2023/01/06 03:58:02;;;;;;;4.35;1.40;;;;;;;14.33;60.19;101576.06;4957287;28;123246;-67
2023/01/06 04:00:35;;;;;;;4.15;1.10;;;;;;;14.35;60.10;101590.16;4957175;28;113469;-67
2023/01/06 04:03:12;;;;;;;3.85;1.40;;;;;;;14.35;60.00;101595.50;4947756;28;115234;-67
2023/01/06 04:05:41;;;;;;;3.15;1.10;;;;;;;14.37;60.00;101601.63;4944214;28;125324;-67
2023/01/06 04:08:08;;;;;;;2.70;1.13;;;;;;;14.37;59.98;101589.19;4953602;28;122791;-67
2023/01/06 04:10:37;;;;;;;3.92;1.10;;;;;;;14.38;59.80;101584.69;4954656;28;113565;-67
2023/01/06 04:13:04;;;;;;;4.82;1.00;;;;;;;14.38;59.87;101584.69;4933702;28;114663;-67
2023/01/06 04:15:33;;;;;;;6.93;1.20;;;;;;;14.37;59.77;101589.19;4935789;28;122898;-67
2023/01/06 04:18:04;;;;;;;3.28;1.05;;;;;;;14.37;59.76;101577.63;4956203;28;122899;-67
2023/01/06 04:20:35;;;;;;;4.05;1.33;;;;;;;14.38;59.91;101569.56;4948761;28;114311;-67
2023/01/06 04:23:11;;;;;;;4.50;1.10;;;;;;;14.39;59.74;101565.09;4961136;28;114942;-67
2023/01/06 04:25:39;;;;;;;5.85;1.15;;;;;;;14.38;59.92;101558.91;4961394;28;124749;-67
2023/01/06 04:28:13;;;;;;;5.65;1.30;;;;;;;14.39;59.76;101554.44;4960594;28;124710;-67
2023/01/06 04:30:41;;;;;;;5.60;1.15;;;;;;;14.39;59.57;101550.00;4960332;28;114891;-67
2023/01/06 04:33:09;;;;;;;4.28;1.15;;;;;;;14.39;59.78;101534.00;4944259;28;113811;-67
2023/01/06 04:35:39;;;;;;;5.40;1.02;;;;;;;14.38;59.61;101536.72;4954408;28;124126;-67
2023/01/06 04:38:06;;;;;;;4.28;1.20;;;;;;;14.39;59.65;101530.44;4949021;28;124509;-67
2023/01/06 04:40:33;;;;;;;2.65;1.10;;;;;;;14.39;59.81;101533.13;4954627;28;114368;-67
2023/01/06 04:43:03;;;;;;;2.08;0.95;;;;;;;14.39;59.70;101533.13;4960132;28;114504;-67
2023/01/06 04:45:31;;;;;;;2.30;1.00;;;;;;;14.39;59.64;101528.66;4946110;28;126732;-67
2023/01/06 04:47:58;;;;;;;1.73;1.00;;;;;;;14.39;59.64;101512.69;4952653;28;124134;-67
2023/01/06 04:50:25;;;;;;;4.55;1.17;;;;;;;14.39;59.71;101509.13;4956410;28;114182;-67
2023/01/06 04:52:53;;;;;;;2.97;0.90;;;;;;;14.39;59.85;101509.13;4959204;28;113559;-67
2023/01/06 04:55:20;;;;;;;5.78;1.33;;;;;;;14.39;59.86;101506.47;4958245;28;125331;-67
2023/01/06 04:57:47;;;;;;;3.10;1.13;;;;;;;14.39;59.69;101495.81;4956157;28;123928;-67
2023/01/06 05:00:14;;;;;;;5.57;1.20;;;;;;;14.39;59.66;101496.69;4963344;28;114282;-67
2023/01/06 05:02:42;;;;;;;3.35;1.25;;;;;;;14.39;59.76;101495.81;4959856;28;114377;-67
2023/01/06 05:05:09;;;;;;;2.22;1.27;;;;;;;14.39;59.68;101490.47;4963328;28;124531;-67
2023/01/06 05:07:37;;;;;;;5.05;1.05;;;;;;;14.38;59.72;101488.75;4963232;28;124053;-67
2023/01/06 05:10:06;;;;;;;3.92;1.08;;;;;;;14.38;59.94;101483.44;4959685;28;114143;-67
2023/01/06 05:12:34;;;;;;;2.45;1.17;;;;;;;14.38;59.78;101483.44;4960927;28;113621;-67
2023/01/06 05:15:01;;;;;;;2.65;1.17;;;;;;;14.36;59.82;101480.00;4942394;28;124736;-68
2023/01/06 05:17:29;;;;;;;3.70;1.10;;;;;;;14.36;59.82;101474.66;4956032;28;124751;-67
2023/01/06 05:19:56;;;;;;;4.25;1.15;;;;;;;14.36;60.04;101480.00;4961223;28;115330;-67
2023/01/06 05:22:23;;;;;;;5.55;1.02;;;;;;;14.37;59.70;101487.03;4960751;28;114248;-67
2023/01/06 05:24:50;;;;;;;2.78;0.80;;;;;;;14.38;59.72;101483.44;4967500;28;124303;-69
2023/01/06 05:27:17;;;;;;;2.85;1.42;;;;;;;14.37;59.76;101476.38;4961363;28;124232;-69
2023/01/06 05:29:44;;;;;;;2.95;0.90;;;;;;;14.37;59.93;101471.03;4962393;28;114199;-70
2023/01/06 05:32:11;;;;;;;2.75;0.90;;;;;;;14.38;59.68;101478.97;4965823;28;114584;-67
2023/01/06 05:34:38;;;;;;;3.70;1.00;;;;;;;14.38;59.60;101478.09;4965824;28;123840;-67
2023/01/06 05:37:05;;;;;;;1.60;1.00;;;;;;;14.38;59.70;101478.09;4961083;28;125010;-67
2023/01/06 05:39:32;;;;;;;3.00;1.10;;;;;;;14.39;59.63;101480.69;4961036;28;115018;-67
2023/01/06 05:41:59;;;;;;;3.85;1.10;;;;;;;14.40;59.78;101478.88;4961486;28;115475;-67
2023/01/06 05:44:26;;;;;;;3.53;1.00;;;;;;;14.41;59.66;101483.28;4965784;28;124307;-67
2023/01/06 05:46:53;;;;;;;1.50;0.75;;;;;;;14.42;59.74;101485.00;4947915;28;123392;-67
2023/01/06 05:49:20;;;;;;;2.60;0.80;;;;;;;14.41;59.66;101489.47;4965033;28;114219;-67
2023/01/06 05:51:47;;;;;;;2.95;1.00;;;;;;;14.43;59.67;101492.06;4964264;28;114146;-67
2023/01/06 05:54:14;;;;;;;3.33;1.00;;;;;;;14.43;59.51;101488.50;4959441;28;124760;-67
2023/01/06 05:56:42;;;;;;;3.50;0.93;;;;;;;14.44;59.57;101488.44;4960004;28;124703;-67
2023/01/06 05:59:09;;;;;;;3.00;0.90;;;;;;;14.45;59.57;101484.84;4966095;28;113935;-67
2023/01/06 06:01:36;;;;;;;2.42;1.10;;;;;;;14.45;59.51;101487.53;4963881;28;113845;-67
2023/01/06 06:04:03;;;;;;;1.70;1.00;;;;;;;14.45;59.50;101487.53;4963543;28;124800;-67
2023/01/06 06:06:30;;;;;;;5.70;1.10;;;;;;;14.44;59.45;101491.09;4966329;28;123935;-67
2023/01/06 06:08:57;;;;;;;2.42;0.90;;;;;;;14.46;59.50;101489.22;4966171;28;115737;-66
2023/01/06 06:11:25;;;;;;;2.30;1.05;;;;;;;14.46;59.58;101485.72;4959385;28;115566;-68
2023/01/06 06:13:54;;;;;;;1.90;1.10;;;;;;;14.46;59.57;101491.03;4962030;28;123720;-68
2023/01/06 06:16:25;;;;;;;2.67;0.90;;;;;;;14.46;59.60;101481.22;4956459;28;123452;-68
2023/01/06 06:18:57;;;;;;;2.47;0.90;;;;;;;14.46;59.41;101489.22;4961620;28;113020;-68
2023/01/06 06:21:29;;;;;;;2.58;1.00;;;;;;;14.47;59.53;101482.13;4961725;28;115292;-68
2023/01/06 06:23:58;;;;;;;3.33;1.42;;;;;;;14.47;59.51;101488.31;4964187;28;122870;-68
2023/01/06 06:26:26;;;;;;;3.22;1.00;;;;;;;14.47;59.62;101482.13;4960342;28;125064;-68
2023/01/06 06:28:53;;;;;;;4.25;1.10;;;;;;;14.46;59.50;101486.56;4963308;28;114272;-68
2023/01/06 06:31:26;;;;;;;2.67;1.73;;;;;;;14.45;59.69;101484.84;4961494;28;114379;-68
2023/01/06 06:33:55;;;;;;;3.65;1.08;;;;;;;14.44;59.77;101483.13;4956790;28;125084;-68
2023/01/06 06:36:23;;;;;;;2.60;1.00;;;;;;;14.43;59.66;101481.41;4957634;28;123705;-68
2023/01/06 06:38:52;;;;;;;2.30;1.20;;;;;;;14.41;59.80;101472.63;4964652;28;114545;-68
2023/01/06 06:41:20;;;;;;;2.88;1.00;;;;;;;14.42;59.61;101485.00;4961425;28;113782;-68
2023/01/06 06:43:49;;;;;;;3.97;1.10;;;;;;;14.39;59.70;101479.81;4968517;28;124263;-68
2023/01/06 06:46:16;;;;;;;2.40;1.00;;;;;;;14.39;59.78;101474.47;4963682;28;123916;-68
2023/01/06 06:48:44;;;;;;;2.20;1.00;;;;;;;14.39;59.71;101477.16;4964614;28;113610;-69
2023/01/06 06:51:13;;;;;;;2.67;1.10;;;;;;;14.37;59.79;101476.38;4963725;28;114445;-68
2023/01/06 06:53:41;;;;;;;3.85;1.13;;;;;;;14.39;59.74;101474.47;4965730;28;124884;-69
2023/01/06 06:56:09;;;;;;;2.63;1.00;;;;;;;14.38;59.85;101473.63;4962601;28;124154;-69
2023/01/06 06:58:37;;;;;;;1.95;1.08;;;;;;;14.40;59.74;101478.88;4966395;28;115558;-69
2023/01/06 07:01:07;;;;;;;3.05;1.20;;;;;;;14.40;59.76;101478.88;4966713;28;114934;-69
2023/01/06 07:03:35;;;;;;;1.73;1.08;;;;;;;14.40;59.71;101478.88;4965733;28;124692;-68
2023/01/06 07:06:03;;;;;;;5.05;1.30;;;;;;;14.42;59.79;101479.66;4965380;28;125561;-69
2023/01/06 07:08:32;;;;;;;4.45;1.15;;;;;;;14.43;59.87;101485.84;4958052;28;115232;-69
2023/01/06 07:10:59;;;;;;;2.17;1.00;;;;;;;14.42;59.94;101485.00;4957650;28;114561;-69
2023/01/06 07:13:26;;;;;;;2.90;1.20;;;;;;;14.42;59.95;101485.00;4962721;28;124219;-69
2023/01/06 07:15:54;;;;;;;1.95;0.98;;;;;;;14.41;60.01;101493.94;4966108;28;123746;-69
2023/01/06 07:18:21;;;;;;;1.85;1.00;;;;;;;14.41;59.84;101489.47;4961430;28;114296;-69
2023/01/06 07:20:51;;;;;;;2.72;1.13;;;;;;;14.41;59.98;101483.28;4961521;28;114323;-69
2023/01/06 07:23:20;;;;;;;2.50;1.20;;;;;;;14.39;60.05;101494.03;4966842;28;124603;-69
2023/01/06 07:25:52;;;;;;;3.90;1.10;;;;;;;14.38;60.04;101499.44;4958548;28;123554;-69
2023/01/06 07:28:19;;;;;;;3.08;1.00;;;;;;;14.39;60.18;101490.47;4945349;28;113644;-69
2023/01/06 07:30:46;;;;;;;2.65;1.00;;;;;;;14.37;60.16;101508.34;4965470;28;114434;-69
2023/01/06 07:33:14;;;;;;;2.88;1.10;;;;;;;14.35;60.20;101510.22;4963361;28;124244;-69
2023/01/06 07:35:41;;;;;;;4.07;1.10;;;;;;;14.34;60.40;101509.38;4960294;28;124598;-69
2023/01/06 07:38:08;;;;;;;3.55;1.15;;;;;;;14.31;60.35;101511.31;4957511;28;114328;-69
2023/01/06 07:40:36;;;;;;;1.63;0.98;;;;;;;14.30;60.26;101517.63;4958726;28;114676;-69
2023/01/06 07:43:05;;;;;;;2.05;1.05;;;;;;;14.28;60.78;101514.13;4959825;28;124446;-69
2023/01/06 07:45:33;;;;;;;4.80;1.00;;;;;;;14.25;60.75;101509.84;4961635;28;125667;-68
2023/01/06 07:48:00;;;;;;;2.40;1.33;;;;;;;14.24;60.71;101512.56;4960346;28;114536;-67
2023/01/06 07:50:28;;;;;;;1.95;1.10;;;;;;;14.21;60.93;101509.13;4946963;28;113866;-68
2023/01/06 07:53:00;;;;;;;3.40;1.25;;;;;;;14.19;61.06;101516.31;4961015;28;124602;-67
2023/01/06 07:55:27;;;;;;;1.40;1.10;;;;;;;14.18;60.88;101519.94;4968757;28;124643;-68
2023/01/06 07:57:55;;;;;;;2.10;1.20;;;;;;;14.16;61.38;101516.47;4967476;28;114357;-67
2023/01/06 08:00:22;;;;;;;2.92;1.30;;;;;;;14.17;61.23;101522.69;4961745;28;113832;-67
2023/01/06 08:02:49;;;;;;;1.95;1.10;;;;;;;14.16;61.18;101521.78;4945331;28;123515;-67
2023/01/06 08:05:16;;;;;;;2.38;1.42;;;;;;;14.17;61.25;101534.19;4958998;28;124307;-68
2023/01/06 08:07:43;;;;;;;3.03;1.27;;;;;;;14.16;61.19;101527.13;4959667;28;112818;-68
2023/01/06 08:10:10;;;;;;;2.03;1.10;;;;;;;14.17;61.41;101533.34;4968300;28;113608;-68
2023/01/06 08:12:37;;;;;;;5.55;1.38;;;;;;;14.17;61.38;101531.53;4960630;28;124719;-68
2023/01/06 08:15:05;;;;;;;3.85;1.60;;;;;;;14.18;61.44;101551.91;4957365;28;123519;-68
2023/01/06 08:17:32;;;;;;;1.98;1.60;;;;;;;14.18;61.49;101543.94;4960112;28;113216;-68
2023/01/06 08:19:59;;;;;;;2.45;1.20;;;;;;;14.19;61.50;101547.44;4969153;28;114222;-68
2023/01/06 08:22:26;;;;;;;3.03;1.23;;;;;;;14.17;61.58;101547.50;4966972;28;123689;-68
2023/01/06 08:24:53;;;;;;;2.03;1.27;;;;;;;14.15;61.78;101557.38;4966560;28;124333;-67
2023/01/06 08:27:21;;;;;;;1.67;1.20;;;;;;;14.14;61.76;101560.97;4972503;28;114454;-68
2023/01/06 08:29:48;;;;;;;3.47;1.23;;;;;;;14.15;61.85;101562.72;4956592;28;114313;-67
2023/01/06 08:32:16;;;;;;;2.05;1.27;;;;;;;14.14;62.00;101560.97;4962802;28;122057;-68
2023/01/06 08:34:43;;;;;;;2.30;1.27;;;;;;;14.13;62.02;101569.91;4966345;28;123729;-68
2023/01/06 08:37:10;;;;;;;3.30;1.65;;;;;;;14.11;62.15;101577.13;4964691;28;114260;-68
2023/01/06 08:39:37;;;;;;;2.33;1.58;;;;;;;14.11;62.11;101577.13;4964523;28;114765;-68
2023/01/06 08:42:04;;;;;;;2.20;1.60;;;;;;;14.12;62.16;101584.16;4942872;28;122990;-68
2023/01/06 08:44:31;;;;;;;1.95;1.60;;;;;;;14.13;62.39;101575.25;4961883;28;123311;-68
2023/01/06 08:46:58;;;;;;;3.45;1.40;;;;;;;14.15;62.36;101584.03;4964099;28;113977;-67
2023/01/06 08:49:26;;;;;;;2.55;1.75;;;;;;;14.17;62.32;101587.47;4964116;28;113821;-68
2023/01/06 08:51:53;;;;;;;2.88;1.65;;;;;;;14.19;62.28;101590.06;4960659;28;124294;-68
2023/01/06 08:54:20;;;;;;;4.53;1.75;;;;;;;14.21;62.33;101594.38;4965182;28;123857;-68
2023/01/06 08:56:47;;;;;;;3.55;2.05;;;;;;;14.23;62.34;101607.63;4963934;28;114965;-68
2023/01/06 08:59:16;;;;;;;5.10;2.20;;;;;;;14.26;62.39;101601.28;4965614;28;113052;-67
2023/01/06 09:01:43;;;;;;;4.13;2.55;;;;;;;14.30;62.35;101608.22;4960590;28;124560;-68
2023/01/06 09:04:12;;;;;;;2.80;2.20;;;;;;;14.30;62.19;101618.88;4965783;28;123320;-68
2023/01/06 09:06:42;;;;;;;4.72;2.65;;;;;;;14.30;62.23;101611.72;4964647;28;114440;-68
2023/01/06 09:09:10;;;;;;;2.90;2.42;;;;;;;14.32;62.10;101622.31;4964458;28;114195;-68
2023/01/06 09:11:42;;;;;;;3.08;2.78;;;;;;;14.32;62.14;101627.66;4963226;28;124330;-69
2023/01/06 09:14:12;;;;;;;3.78;2.45;;;;;;;14.32;62.31;101633.84;4967486;28;124986;-68
2023/01/06 09:16:40;;;;;;;3.10;2.60;;;;;;;14.33;62.20;101634.69;4958002;28;115023;-68
2023/01/06 09:19:09;;;;;;;4.15;2.83;;;;;;;14.35;62.31;101643.47;4964158;28;113371;-68
2023/01/06 09:21:36;;;;;;;3.58;2.70;;;;;;;14.37;62.21;101636.25;4960461;28;124410;-68
2023/01/06 09:24:04;;;;;;;3.50;3.20;;;;;;;14.40;62.15;101630.78;4956659;28;123863;-68
2023/01/06 09:26:31;;;;;;;4.38;3.00;;;;;;;14.43;62.34;101636.00;4957930;28;115009;-68
2023/01/06 09:28:58;;;;;;;4.53;3.30;;;;;;;14.47;62.31;101632.22;4979649;28;115604;-68
2023/01/06 09:31:25;;;;;;;3.63;3.15;;;;;;;14.51;62.25;101647.13;4967139;28;125722;-68
2023/01/06 09:33:53;;;;;;;3.67;3.22;;;;;;;14.56;62.45;101662.88;4975702;28;124253;-68
2023/01/06 09:36:21;;;;;;;3.20;2.90;;;;;;;14.59;62.26;101674.31;4971294;28;114545;-69
2023/01/06 09:38:48;;;;;;;3.85;2.90;;;;;;;14.64;62.25;101670.56;4954371;28;113506;-68
2023/01/06 09:41:34;;;;;;;4.95;2.97;;;;;;;14.67;62.09;101681.06;4953733;28;123389;-68
2023/01/06 09:44:15;;;;;;;6.07;3.15;;;;;;;14.69;62.00;101679.19;4950568;28;123600;-69
2023/01/06 09:46:45;;;;;;;5.60;3.58;;;;;;;14.71;62.11;101683.53;4967374;28;114544;-68
2023/01/06 09:49:26;;;;;;;4.20;3.20;;;;;;;14.74;62.03;101679.84;4957215;28;114154;-68
2023/01/06 09:52:10;;;;;;;4.45;3.47;;;;;;;14.79;62.12;101680.47;4949493;28;123957;-69
2023/01/06 09:54:42;;;;;;;6.22;3.78;;;;;;;14.82;61.93;101679.44;4950260;28;124320;-69
2023/01/06 09:57:15;;;;;;;4.82;3.67;;;;;;;14.84;61.90;101683.75;4962176;28;114315;-68
2023/01/06 09:59:54;;;;;;;4.57;3.80;;;;;;;14.86;61.86;101676.56;4947103;28;114640;-68
2023/01/06 10:02:36;;;;;;;5.47;4.03;;;;;;;14.88;61.94;101685.38;4932877;28;125414;-69
2023/01/06 10:05:19;;;;;;;4.68;4.18;;;;;;;14.90;61.73;101683.47;4942229;28;123152;-69
2023/01/06 10:07:53;;;;;;;6.10;4.20;;;;;;;14.91;61.57;101684.34;4946855;28;114918;-69
2023/01/06 10:10:32;;;;;;;6.90;4.10;;;;;;;14.90;61.64;101683.47;4932386;28;114036;-69
2023/01/06 10:13:16;;;;;;;4.88;4.03;;;;;;;14.90;61.41;101683.47;4956103;28;124648;-68
2023/01/06 10:15:54;;;;;;;5.35;3.72;;;;;;;14.91;61.41;101687.84;4951023;28;124630;-68
2023/01/06 10:18:39;;;;;;;6.55;4.20;;;;;;;14.91;61.29;101685.19;4953538;28;116027;-69
2023/01/06 10:21:35;;;;;;;5.50;4.23;;;;;;;14.91;61.38;101690.53;4949257;28;114897;-69
2023/01/06 10:24:27;;;;;;;8.80;4.55;;;;;;;14.89;60.97;101687.06;4945752;28;123888;-69
2023/01/06 10:26:57;;;;;;;5.05;4.10;;;;;;;14.90;61.18;101683.47;4946678;28;124559;-69
2023/01/06 10:29:31;;;;;;;7.47;4.68;;;;;;;14.92;61.26;101688.75;4953160;28;115064;-68
2023/01/06 10:32:01;;;;;;;7.18;4.50;;;;;;;14.97;61.21;101687.56;4951021;28;114029;-68
2023/01/06 10:34:28;;;;;;;7.07;4.60;;;;;;;15.04;61.35;101689.94;4931415;28;124712;-69
2023/01/06 10:37:01;;;;;;;7.50;4.60;;;;;;;15.09;61.20;101685.22;4953236;28;125017;-69
2023/01/06 10:39:30;;;;;;;6.93;4.50;;;;;;;15.15;61.14;101692.91;4946246;28;114829;-69
2023/01/06 10:44:56;;;;;;;5.70;4.03;;;;;;;15.29;61.07;101679.72;4955261;28;124537;-68
2023/01/06 10:47:31;;;;;;;8.43;4.65;;;;;;;15.36;60.82;101685.63;4958157;28;124078;-69
2023/01/06 10:49:59;;;;;;;6.13;4.20;;;;;;;15.42;60.84;101673.75;4952549;28;114434;-69
2023/01/06 10:52:26;;;;;;;7.47;3.88;;;;;;;15.45;60.97;101678.94;4950902;28;114268;-68
2023/01/06 10:55:03;;;;;;;5.25;3.28;;;;;;;15.49;60.46;101681.34;4964934;28;123904;-68
2023/01/06 10:57:38;;;;;;;5.75;3.50;;;;;;;15.53;60.37;101687.41;4947204;28;124072;-70
2023/01/06 11:00:12;;;;;;;6.22;3.25;;;;;;;15.57;59.94;101683.63;4947377;28;114085;-69
2023/01/06 11:02:50;;;;;;;5.57;3.40;;;;;;;15.61;60.07;101674.50;4966765;28;113113;-69
2023/01/06 11:05:29;;;;;;;6.03;3.47;;;;;;;15.67;60.14;101684.00;4955300;28;124594;-69
2023/01/06 11:07:59;;;;;;;5.03;3.47;;;;;;;15.72;59.99;101676.63;4954162;28;123706;-69
2023/01/06 11:10:32;;;;;;;6.55;3.85;;;;;;;15.77;59.94;101680.78;4970203;28;114508;-69
2023/01/06 11:13:02;;;;;;;6.68;3.60;;;;;;;15.83;59.66;101684.09;4957155;28;115159;-69
2023/01/06 11:15:39;;;;;;;5.95;3.00;;;;;;;15.88;59.26;101687.34;4961133;28;123348;-69
2023/01/06 11:18:26;;;;;;;6.53;2.80;;;;;;;15.89;59.26;101683.75;4932643;28;124693;-68
2023/01/06 11:21:03;;;;;;;5.65;2.45;;;;;;;15.87;58.85;101685.66;4942005;28;97426;-68
2023/01/06 11:23:31;;;;;;;6.75;3.03;;;;;;;15.84;58.58;101685.81;4946985;28;114401;-68
2023/01/06 11:25:59;;;;;;;6.93;2.63;;;;;;;15.82;58.32;101682.34;4948375;28;123105;-69
2023/01/06 11:28:27;;;;;;;6.25;2.28;;;;;;;15.79;58.33;101682.53;4957144;28;123086;-68
2023/01/06 11:31:24;;;;;;;6.25;2.22;;;;;;;15.76;57.99;101689.78;4941844;28;114036;-68
2023/01/06 11:33:55;;;;;;;4.97;1.55;;;;;;;15.75;58.22;101688.03;4954245;28;113329;-68
2023/01/06 11:36:26;;;;;;;3.40;2.00;;;;;;;15.77;58.32;101686.13;4948002;28;123885;-68
2023/01/06 11:39:00;;;;;;;7.05;2.42;;;;;;;15.77;58.05;101686.13;4948231;28;123602;-68
2023/01/06 11:41:37;;;;;;;5.95;2.65;;;;;;;15.80;58.01;101684.25;4950445;28;114176;-68
2023/01/06 11:44:12;;;;;;;6.47;2.22;;;;;;;15.83;58.18;101684.09;4962958;28;113851;-68
2023/01/06 11:46:47;;;;;;;5.97;2.20;;;;;;;15.88;58.13;101671.31;4970164;28;124344;-69